createdAt,value
2023-03-12T00:00:02.221Z,2.03
2023-03-12T00:03:28.468Z,1.98
2023-03-12T00:06:53.599Z,1.94
2023-03-12T00:10:18.797Z,1.95
2023-03-12T00:13:43.977Z,1.97
2023-03-12T00:17:09.185Z,1.99
2023-03-12T00:20:34.366Z,2.06
2023-03-12T00:23:59.573Z,2.09
2023-03-12T00:27:24.791Z,2.11
2023-03-12T00:30:49.945Z,2.14
2023-03-12T00:34:15.140Z,2.15
2023-03-12T00:37:40.329Z,2.13
2023-03-12T00:41:05.513Z,2.12
2023-03-12T00:44:30.745Z,2.17
2023-03-12T00:47:55.916Z,2.19
2023-03-12T00:51:21.111Z,2.19
2023-03-12T00:54:46.323Z,2.17
2023-03-12T00:58:11.526Z,2.14
2023-03-12T01:01:36.729Z,2.14
2023-03-12T01:05:01.911Z,2.18
2023-03-12T01:08:27.100Z,2.23
2023-03-12T01:11:52.331Z,2.28
2023-03-12T01:15:17.535Z,2.3
2023-03-12T01:18:42.778Z,2.31
2023-03-12T01:22:07.956Z,2.31
2023-03-12T01:25:33.127Z,2.29
2023-03-12T01:28:58.315Z,2.32
2023-03-12T01:32:24.314Z,2.34
2023-03-12T01:35:49.878Z,2.3
2023-03-12T01:39:14.981Z,2.3
2023-03-12T01:42:40.172Z,2.35
2023-03-12T01:46:05.440Z,2.38
2023-03-12T01:49:30.562Z,2.42
2023-03-12T01:52:55.774Z,2.39
2023-03-12T01:56:20.947Z,2.41
2023-03-12T01:59:46.135Z,2.4
2023-03-12T02:03:11.346Z,2.42
2023-03-12T02:06:36.528Z,2.4
2023-03-12T02:10:01.756Z,2.38
2023-03-12T02:13:26.921Z,2.37
2023-03-12T02:16:52.207Z,2.37
2023-03-12T02:20:17.388Z,2.37
2023-03-12T02:23:42.583Z,2.35
2023-03-12T02:27:07.788Z,2.3
2023-03-12T02:30:32.947Z,2.33
2023-03-12T02:33:58.145Z,2.32
2023-03-12T02:37:23.330Z,2.32
2023-03-12T02:40:48.505Z,2.27
2023-03-12T02:44:13.716Z,2.26
2023-03-12T02:47:38.860Z,2.28
2023-03-12T02:51:04.055Z,2.26
2023-03-12T02:54:29.242Z,2.25
2023-03-12T02:57:54.448Z,2.25
2023-03-12T03:01:19.664Z,2.26
2023-03-12T03:04:44.853Z,2.28
2023-03-12T03:08:10.056Z,2.26
2023-03-12T03:11:35.216Z,2.27
2023-03-12T03:15:00.426Z,2.27
2023-03-12T03:18:25.659Z,2.26
2023-03-12T03:21:50.817Z,2.22
2023-03-12T03:25:16.006Z,2.2
2023-03-12T03:32:02.320Z,2.2
2023-03-12T03:35:27.551Z,2.22
2023-03-12T03:38:52.695Z,2.26
2023-03-12T03:42:17.886Z,2.3
2023-03-12T03:45:43.064Z,2.33
2023-03-12T03:49:08.263Z,2.35
2023-03-12T03:52:33.499Z,2.37
2023-03-12T03:55:58.648Z,2.38
2023-03-12T03:59:23.847Z,2.4
2023-03-12T04:02:49.044Z,2.44
2023-03-12T04:06:14.213Z,2.45
2023-03-12T04:09:39.426Z,2.53
2023-03-12T04:13:04.614Z,2.59
2023-03-12T04:16:29.792Z,2.65
2023-03-12T04:19:54.983Z,2.71
2023-03-12T04:23:20.223Z,2.75
2023-03-12T04:26:45.473Z,2.75
2023-03-12T04:30:10.626Z,2.78
2023-03-12T04:33:35.818Z,2.78
2023-03-12T04:37:01.009Z,2.76
2023-03-12T04:40:26.202Z,2.74
2023-03-12T04:43:51.428Z,2.75
2023-03-12T04:47:16.578Z,2.77
2023-03-12T04:50:41.755Z,2.78
2023-03-12T04:54:06.949Z,2.81
2023-03-12T04:57:32.148Z,2.83
2023-03-12T05:00:57.368Z,2.86
2023-03-12T05:04:22.509Z,2.91
2023-03-12T05:07:47.711Z,2.95
2023-03-12T05:11:12.861Z,2.93
2023-03-12T05:14:38.077Z,2.94
2023-03-12T05:18:03.290Z,2.93
2023-03-12T05:21:28.440Z,2.96
2023-03-12T05:24:53.639Z,2.96
2023-03-12T05:28:18.846Z,2.97
2023-03-12T05:31:44.100Z,2.99
2023-03-12T05:35:09.234Z,2.97
2023-03-12T05:38:34.380Z,2.98
2023-03-12T05:41:59.556Z,2.97
2023-03-12T05:45:24.736Z,2.92
2023-03-12T05:48:49.950Z,2.9
2023-03-12T05:52:15.154Z,2.9
2023-03-12T05:55:40.333Z,2.9
2023-03-12T05:59:05.510Z,2.9
2023-03-12T06:02:30.714Z,2.9
2023-03-12T06:05:55.861Z,2.89
2023-03-12T06:09:21.066Z,2.9
2023-03-12T06:12:46.239Z,2.92
2023-03-12T06:16:11.450Z,2.97
2023-03-12T06:19:36.824Z,3
2023-03-12T06:23:02.055Z,3
2023-03-12T06:26:27.288Z,3
2023-03-12T06:29:52.460Z,3.05
2023-03-12T06:33:17.636Z,3.09
2023-03-12T06:36:42.955Z,3.16
2023-03-12T06:40:08.126Z,3.2
2023-03-12T06:43:33.338Z,3.23
2023-03-12T06:46:58.610Z,3.28
2023-03-12T06:50:23.784Z,3.33
2023-03-12T06:53:49.169Z,3.37
2023-03-12T06:57:14.355Z,3.41
2023-03-12T07:00:39.585Z,3.47
2023-03-12T07:04:04.778Z,3.52
2023-03-12T07:07:29.977Z,3.52
2023-03-12T07:10:55.177Z,3.51
2023-03-12T07:14:20.353Z,3.49
2023-03-12T07:17:45.606Z,3.5
2023-03-12T07:21:10.757Z,3.49
2023-03-12T07:24:35.957Z,3.49
2023-03-12T07:28:01.166Z,3.51
2023-03-12T07:31:26.378Z,3.56
2023-03-12T07:34:51.528Z,3.61
2023-03-12T07:38:16.710Z,3.7
2023-03-12T07:41:41.886Z,3.79
2023-03-12T07:45:07.353Z,3.9
2023-03-12T07:48:32.541Z,3.9
2023-03-12T07:51:57.828Z,3.92
2023-03-12T07:55:23.042Z,3.93
2023-03-12T07:58:48.275Z,3.98
2023-03-12T08:02:13.525Z,4.05
2023-03-12T08:05:38.725Z,4.12
2023-03-12T08:09:03.847Z,4.19
2023-03-12T08:12:29.100Z,4.27
2023-03-12T08:15:54.256Z,4.41
2023-03-12T08:19:19.388Z,4.46
2023-03-12T08:22:44.583Z,4.46
2023-03-12T08:26:09.806Z,4.49
2023-03-12T08:29:34.990Z,4.6
2023-03-12T08:33:00.226Z,4.73
2023-03-12T08:36:25.390Z,4.89
2023-03-12T08:39:50.585Z,5.11
2023-03-12T08:43:15.830Z,5.11
2023-03-12T08:46:41.007Z,5.08
2023-03-12T08:50:06.223Z,4.99
2023-03-12T08:53:31.511Z,4.89
2023-03-12T08:56:56.639Z,4.79
2023-03-12T09:00:21.890Z,4.83
2023-03-12T09:03:47.060Z,4.86
2023-03-12T09:07:12.248Z,4.95
2023-03-12T09:10:37.495Z,5.1
2023-03-12T09:14:50.139Z,5.14
2023-03-12T09:17:27.936Z,5.12
2023-03-12T09:20:53.163Z,5.11
2023-03-12T09:24:18.398Z,5.16
2023-03-12T09:27:43.589Z,5.15
2023-03-12T09:31:08.857Z,5.13
2023-03-12T09:34:33.988Z,5.09
2023-03-12T09:37:59.167Z,5.12
2023-03-12T09:41:24.396Z,5.15
2023-03-12T09:44:49.559Z,5.18
2023-03-12T09:48:14.761Z,5.14
2023-03-12T09:51:39.966Z,5.1
2023-03-12T09:55:05.147Z,5.09
2023-03-12T09:58:30.350Z,5.07
2023-03-12T10:01:55.539Z,5.08
2023-03-12T10:05:20.808Z,5.15
2023-03-12T10:08:46.083Z,5.21
2023-03-12T10:12:11.188Z,5.27
2023-03-12T10:15:36.400Z,5.34
2023-03-12T10:19:01.609Z,5.45
2023-03-12T10:22:26.976Z,5.54
2023-03-12T10:25:52.387Z,5.59
2023-03-12T10:29:17.581Z,5.66
2023-03-12T10:32:42.841Z,5.71
2023-03-12T10:36:08.033Z,5.74
2023-03-12T10:39:33.194Z,5.68
2023-03-12T10:42:58.457Z,5.6
2023-03-12T10:46:23.735Z,5.55
2023-03-12T10:49:48.888Z,5.58
2023-03-12T10:53:14.086Z,5.69
2023-03-12T10:56:39.250Z,5.72
2023-03-12T11:00:04.476Z,5.71
2023-03-12T11:03:29.656Z,5.69
2023-03-12T11:06:54.838Z,5.66
2023-03-12T11:10:20.042Z,5.67
2023-03-12T11:13:45.221Z,5.79
2023-03-12T11:17:10.459Z,5.87
2023-03-12T11:20:35.644Z,5.95
2023-03-12T11:24:00.846Z,6.02
2023-03-12T11:27:26.067Z,6.14
2023-03-12T11:30:51.310Z,6.34
2023-03-12T11:34:16.521Z,6.49
2023-03-12T11:37:41.693Z,6.65
2023-03-12T11:41:06.886Z,6.66
2023-03-12T11:44:32.077Z,6.63
2023-03-12T11:47:57.309Z,6.63
2023-03-12T11:51:22.501Z,6.77
2023-03-12T11:54:47.703Z,6.83
2023-03-12T11:58:12.928Z,6.77
2023-03-12T12:01:38.212Z,6.72
2023-03-12T12:05:03.360Z,6.71
2023-03-12T12:08:28.596Z,6.63
2023-03-12T12:11:53.790Z,6.6
2023-03-12T12:15:18.980Z,6.62
2023-03-12T12:18:44.242Z,6.66
2023-03-12T12:22:09.483Z,6.64
2023-03-12T12:25:34.684Z,6.59
2023-03-12T12:28:59.888Z,6.56
2023-03-12T12:32:25.126Z,6.47
2023-03-12T12:35:50.336Z,6.35
2023-03-12T12:39:15.560Z,6.22
2023-03-12T12:42:40.914Z,6.21
2023-03-12T12:46:06.126Z,6.23
2023-03-12T12:49:32.051Z,6.16
2023-03-12T12:52:57.420Z,6.15
2023-03-12T12:56:22.631Z,6.17
2023-03-12T12:59:47.836Z,6.12
2023-03-12T13:03:13.032Z,6.02
2023-03-12T13:06:39.732Z,5.9
2023-03-12T13:10:03.447Z,5.89
2023-03-12T13:13:28.649Z,5.91
2023-03-12T13:16:53.859Z,5.95
2023-03-12T13:20:19.047Z,5.91
2023-03-12T13:23:44.258Z,5.91
2023-03-12T13:27:09.459Z,5.91
2023-03-12T13:30:34.632Z,6.01
2023-03-12T13:33:59.864Z,6.14
2023-03-12T13:37:25.025Z,6.16
2023-03-12T13:40:50.208Z,6.14
2023-03-12T13:44:15.416Z,6.1
2023-03-12T13:47:40.631Z,6.13
2023-03-12T13:51:05.860Z,6.19
2023-03-12T13:54:31.046Z,6.31
2023-03-12T13:57:56.234Z,6.4
2023-03-12T14:01:21.477Z,6.45
2023-03-12T14:04:46.979Z,6.44
2023-03-12T14:08:12.417Z,6.44
2023-03-12T14:11:38.021Z,6.43
2023-03-12T14:15:03.295Z,6.4
2023-03-12T14:18:28.666Z,6.39
2023-03-12T14:21:53.989Z,6.39
2023-03-12T14:25:19.409Z,6.41
2023-03-12T14:28:44.713Z,6.39
2023-03-12T15:04:21.725Z,4.32
2023-03-12T15:07:46.999Z,5.3
2023-03-12T15:11:12.412Z,5.57
2023-03-12T15:14:37.808Z,5.82
2023-03-12T15:18:03.214Z,6.06
2023-03-12T15:21:28.621Z,6.23
2023-03-12T15:24:54.032Z,6.34
2023-03-12T15:28:19.422Z,6.43
2023-03-12T15:31:44.860Z,6.49
2023-03-12T15:35:10.219Z,6.49
2023-03-12T15:38:35.624Z,6.44
2023-03-12T15:42:01.072Z,6.48
2023-03-12T15:45:26.435Z,6.5
2023-03-12T15:48:51.687Z,6.5
2023-03-12T15:52:17.038Z,6.51
2023-03-12T15:55:42.497Z,6.56
2023-03-12T15:59:07.856Z,6.59
2023-03-12T16:02:33.232Z,6.56
2023-03-12T16:05:58.578Z,6.59
2023-03-12T16:09:23.997Z,6.66
2023-03-12T16:12:49.407Z,6.72
2023-03-12T16:16:14.864Z,6.75
2023-03-12T16:19:40.259Z,6.77
2023-03-12T16:23:05.593Z,6.72
2023-03-12T16:26:30.893Z,6.76
2023-03-12T16:29:56.347Z,6.8
2023-03-12T16:33:21.580Z,6.84
2023-03-12T16:36:46.822Z,6.85
2023-03-12T16:40:14.431Z,6.87
2023-03-12T16:43:37.427Z,6.9
2023-03-12T16:47:02.686Z,6.95
2023-03-12T16:50:28.000Z,6.94
2023-03-12T16:54:07.243Z,6.93
2023-03-12T16:57:18.800Z,6.91
2023-03-12T17:00:44.210Z,6.88
2023-03-12T17:04:09.621Z,6.91
2023-03-12T17:07:34.928Z,6.99
2023-03-12T17:11:00.321Z,7.07
2023-03-12T17:14:25.781Z,7.12
2023-03-12T17:17:51.189Z,7.17
2023-03-12T17:21:16.661Z,7.21
2023-03-12T17:24:42.111Z,7.27
2023-03-12T17:28:07.627Z,7.3
2023-03-12T17:31:33.123Z,7.35
2023-03-12T17:34:58.636Z,7.39
2023-03-12T17:38:24.094Z,7.46
2023-03-12T17:41:49.515Z,7.49
2023-03-12T17:45:14.930Z,7.51
2023-03-12T17:48:40.385Z,7.56
2023-03-12T17:52:05.792Z,7.64
2023-03-12T17:55:31.218Z,7.69
2023-03-12T17:58:56.595Z,7.73
2023-03-12T18:02:21.974Z,7.79
2023-03-12T18:05:47.431Z,7.84
2023-03-12T18:09:12.879Z,7.9
2023-03-12T18:12:38.236Z,7.96
2023-03-12T18:16:03.466Z,7.96
2023-03-12T18:19:28.665Z,7.93
2023-03-12T18:22:53.917Z,7.93
2023-03-12T18:26:19.165Z,7.95
2023-03-12T18:29:44.395Z,7.93
2023-03-12T18:33:10.439Z,7.95
2023-03-12T18:36:35.628Z,7.99
2023-03-12T18:40:00.922Z,7.97
2023-03-12T18:43:26.153Z,7.94
2023-03-12T18:46:51.419Z,7.94
2023-03-12T18:50:16.572Z,7.97
2023-03-12T18:53:41.790Z,7.98
2023-03-12T18:57:06.975Z,8.03
2023-03-12T19:00:32.179Z,8.05
2023-03-12T19:03:57.474Z,8.11
2023-03-12T19:07:22.609Z,8.18
2023-03-12T19:10:47.813Z,8.18
2023-03-12T19:14:13.042Z,8.21
2023-03-12T19:17:38.223Z,8.2
2023-03-12T19:21:04.508Z,8.18
2023-03-12T19:24:29.656Z,8.12
2023-03-12T19:27:54.852Z,8.05
2023-03-12T19:31:20.074Z,8.07
2023-03-12T19:34:45.255Z,8.07
2023-03-12T19:38:10.483Z,8.07
2023-03-12T19:41:35.633Z,8.07
2023-03-12T19:45:00.857Z,8.12
2023-03-12T19:48:26.034Z,8.17
2023-03-12T19:51:51.223Z,8.21
2023-03-12T19:55:16.467Z,8.24
2023-03-12T19:58:41.596Z,8.26
2023-03-12T20:02:06.897Z,8.25
2023-03-12T20:05:32.050Z,8.22
2023-03-12T20:08:57.226Z,8.22
2023-03-12T20:12:22.474Z,8.21
2023-03-12T20:15:47.619Z,8.22
2023-03-12T20:19:12.833Z,8.26
2023-03-12T20:22:38.023Z,8.28
2023-03-12T20:26:03.208Z,8.32
2023-03-12T20:29:28.424Z,8.39
2023-03-12T20:32:53.727Z,8.45
2023-03-12T20:36:18.872Z,8.46
2023-03-12T20:39:44.064Z,8.46
2023-03-12T20:43:09.283Z,8.52
2023-03-12T20:46:34.615Z,8.59
2023-03-12T20:49:59.765Z,8.61
2023-03-12T20:53:24.959Z,8.6
2023-03-12T20:56:50.150Z,8.62
2023-03-12T21:00:15.343Z,8.66
2023-03-12T21:03:40.566Z,8.68
2023-03-12T21:07:05.721Z,8.74
2023-03-12T21:10:31.663Z,8.74
2023-03-12T21:13:56.115Z,8.75
2023-03-12T21:17:21.282Z,8.77
2023-03-12T21:20:46.518Z,8.82
2023-03-12T21:24:11.712Z,8.85
2023-03-12T21:27:49.721Z,8.86
2023-03-12T21:31:02.111Z,8.88
2023-03-12T21:34:27.265Z,8.86
2023-03-12T21:37:52.500Z,8.84
2023-03-12T21:41:17.678Z,8.84
2023-03-12T21:44:42.858Z,8.85
2023-03-12T21:48:08.076Z,8.85
2023-03-12T21:51:33.274Z,8.85
2023-03-12T21:54:58.501Z,8.85
2023-03-12T21:58:23.651Z,8.83
2023-03-12T22:01:48.886Z,8.85
2023-03-12T22:05:14.052Z,8.88
2023-03-12T22:08:39.223Z,8.89
2023-03-12T22:12:04.636Z,8.91
2023-03-12T22:15:29.590Z,8.87
2023-03-12T22:18:54.787Z,8.85
2023-03-12T22:22:20.000Z,8.82
2023-03-12T22:25:45.182Z,8.81
2023-03-12T22:29:10.408Z,8.82
2023-03-12T22:32:35.599Z,8.81
2023-03-12T22:36:00.766Z,8.82
2023-03-12T22:39:25.930Z,8.8
2023-03-12T22:42:51.125Z,8.8
2023-03-12T22:46:16.458Z,8.77
2023-03-12T22:49:41.505Z,8.74
2023-03-12T22:53:06.695Z,8.75
2023-03-12T22:56:31.893Z,8.73
2023-03-12T22:59:57.082Z,8.76
2023-03-12T23:03:22.299Z,8.76
2023-03-12T23:06:47.432Z,8.8
2023-03-12T23:10:12.674Z,8.8
2023-03-12T23:13:37.819Z,8.79
2023-03-12T23:17:02.989Z,8.76
2023-03-12T23:20:28.210Z,8.75
2023-03-12T23:23:53.390Z,8.75
2023-03-12T23:27:18.561Z,8.75
2023-03-12T23:30:43.727Z,8.74
2023-03-12T23:34:08.938Z,8.76
2023-03-12T23:37:34.149Z,8.81
2023-03-12T23:40:59.307Z,8.84
2023-03-12T23:44:24.527Z,8.85
2023-03-12T23:47:49.690Z,8.85
2023-03-12T23:51:14.873Z,8.83
2023-03-12T23:54:40.192Z,8.81
2023-03-12T23:58:05.257Z,8.8
